sensor_id;sensor_type;location;lat;lon;timestamp;pressure;altitude;pressure_sealevel;temperature;humidity
57990;BME280;58373;51.824;5.564;2023-04-27T00:02:19;102020.31;;;4.18;74.35
57990;BME280;58373;51.824;5.564;2023-04-27T00:04:44;102021.28;;;4.15;74.65
57990;BME280;58373;51.824;5.564;2023-04-27T00:07:09;102038.34;;;4.16;74.83
57990;BME280;58373;51.824;5.564;2023-04-27T00:09:35;102046.94;;;4.15;74.71
57990;BME280;58373;51.824;5.564;2023-04-27T00:12:00;102042.75;;;4.13;74.76
57990;BME280;58373;51.824;5.564;2023-04-27T00:14:25;102040.22;;;4.11;74.96
57990;BME280;58373;51.824;5.564;2023-04-27T00:16:52;102039.41;;;4.11;74.96
57990;BME280;58373;51.824;5.564;2023-04-27T00:19:17;102031.75;;;4.09;75.10
57990;BME280;58373;51.824;5.564;2023-04-27T00:21:42;102041.19;;;4.09;75.02
57990;BME280;58373;51.824;5.564;2023-04-27T00:24:08;102038.69;;;4.07;75.15
57990;BME280;58373;51.824;5.564;2023-04-27T00:26:33;102042.13;;;4.06;75.52
57990;BME280;58373;51.824;5.564;2023-04-27T00:28:58;102040.44;;;4.05;75.48
57990;BME280;58373;51.824;5.564;2023-04-27T00:31:23;102042.25;;;4.03;75.34
57990;BME280;58373;51.824;5.564;2023-04-27T00:33:48;102045.72;;;4.02;75.52
57990;BME280;58373;51.824;5.564;2023-04-27T00:36:14;102042.34;;;4.00;75.94
57990;BME280;58373;51.824;5.564;2023-04-27T00:38:40;102040.66;;;3.99;75.81
57990;BME280;58373;51.824;5.564;2023-04-27T00:41:05;102043.22;;;3.99;75.87
57990;BME280;58373;51.824;5.564;2023-04-27T00:43:31;102038.16;;;3.97;75.63
57990;BME280;58373;51.824;5.564;2023-04-27T00:45:57;102033.94;;;3.95;75.86
57990;BME280;58373;51.824;5.564;2023-04-27T00:48:22;102032.28;;;3.94;75.77
57990;BME280;58373;51.824;5.564;2023-04-27T00:50:48;102049.47;;;3.92;76.12
57990;BME280;58373;51.824;5.564;2023-04-27T00:53:13;102044.34;;;3.92;76.07
57990;BME280;58373;51.824;5.564;2023-04-27T00:55:39;102041.88;;;3.89;76.49
57990;BME280;58373;51.824;5.564;2023-04-27T00:58:04;102046.28;;;3.85;76.20
57990;BME280;58373;51.824;5.564;2023-04-27T01:00:29;102042.97;;;3.82;76.56
57990;BME280;58373;51.824;5.564;2023-04-27T01:02:55;102041.38;;;3.78;76.47
57990;BME280;58373;51.824;5.564;2023-04-27T01:05:20;102042.34;;;3.75;76.71
57990;BME280;58373;51.824;5.564;2023-04-27T01:07:45;102039.84;;;3.73;76.64
57990;BME280;58373;51.824;5.564;2023-04-27T01:10:11;102032.16;;;3.72;76.73
57990;BME280;58373;51.824;5.564;2023-04-27T01:12:36;102035.69;;;3.69;76.85
57990;BME280;58373;51.824;5.564;2023-04-27T01:15:01;102033.13;;;3.69;76.63
57990;BME280;58373;51.824;5.564;2023-04-27T01:17:27;102028.00;;;3.69;76.62
57990;BME280;58373;51.824;5.564;2023-04-27T01:19:52;102036.59;;;3.68;76.92
57990;BME280;58373;51.824;5.564;2023-04-27T01:22:19;102027.16;;;3.69;76.86
57990;BME280;58373;51.824;5.564;2023-04-27T01:24:45;102025.50;;;3.66;77.02
57990;BME280;58373;51.824;5.564;2023-04-27T01:27:11;102026.41;;;3.65;77.41
57990;BME280;58373;51.824;5.564;2023-04-27T01:29:36;102028.97;;;3.65;77.37
57990;BME280;58373;51.824;5.564;2023-04-27T01:32:01;102035.00;;;3.64;77.44
57990;BME280;58373;51.824;5.564;2023-04-27T01:34:27;102033.31;;;3.63;77.71
57990;BME280;58373;51.824;5.564;2023-04-27T01:36:52;102035.13;;;3.61;77.31
57990;BME280;58373;51.824;5.564;2023-04-27T01:39:17;102030.06;;;3.58;77.79
57990;BME280;58373;51.824;5.564;2023-04-27T01:41:42;102024.19;;;3.55;77.48
57990;BME280;58373;51.824;5.564;2023-04-27T01:44:07;102030.28;;;3.52;78.03
57990;BME280;58373;51.824;5.564;2023-04-27T01:46:32;102025.22;;;3.51;77.86
57990;BME280;58373;51.824;5.564;2023-04-27T01:48:58;102028.69;;;3.48;77.85
57990;BME280;58373;51.824;5.564;2023-04-27T01:51:23;102019.31;;;3.47;78.19
57990;BME280;58373;51.824;5.564;2023-04-27T01:53:48;102027.84;;;3.47;78.19
57990;BME280;58373;51.824;5.564;2023-04-27T01:56:13;102013.41;;;3.45;78.27
57990;BME280;58373;51.824;5.564;2023-04-27T01:58:39;102016.00;;;3.43;78.17
57990;BME280;58373;51.824;5.564;2023-04-27T02:01:04;102010.94;;;3.42;78.61
57990;BME280;58373;51.824;5.564;2023-04-27T02:03:29;102015.28;;;3.40;78.68
57990;BME280;58373;51.824;5.564;2023-04-27T02:05:54;102013.56;;;3.40;78.45
57990;BME280;58373;51.824;5.564;2023-04-27T02:08:20;102010.03;;;3.43;78.64
57990;BME280;58373;51.824;5.564;2023-04-27T02:10:45;102005.81;;;3.42;78.75
57990;BME280;58373;51.824;5.564;2023-04-27T02:13:10;102007.66;;;3.38;79.01
57990;BME280;58373;51.824;5.564;2023-04-27T02:15:35;102006.78;;;3.38;79.17
57990;BME280;58373;51.824;5.564;2023-04-27T02:18:01;102009.53;;;3.33;79.14
57990;BME280;58373;51.824;5.564;2023-04-27T02:20:28;102010.44;;;3.31;78.89
57990;BME280;58373;51.824;5.564;2023-04-27T02:22:53;102000.31;;;3.28;79.25
57990;BME280;58373;51.824;5.564;2023-04-27T02:25:19;102009.72;;;3.27;78.97
57990;BME280;58373;51.824;5.564;2023-04-27T02:27:44;102007.19;;;3.26;79.56
57990;BME280;58373;51.824;5.564;2023-04-27T02:30:10;102003.84;;;3.24;79.50
57990;BME280;58373;51.824;5.564;2023-04-27T02:32:36;102002.19;;;3.23;79.92
57990;BME280;58373;51.824;5.564;2023-04-27T02:35:01;102000.50;;;3.22;79.17
57990;BME280;58373;51.824;5.564;2023-04-27T02:37:27;101995.47;;;3.18;79.51
57990;BME280;58373;51.824;5.564;2023-04-27T02:39:52;101998.16;;;3.14;79.66
57990;BME280;58373;51.824;5.564;2023-04-27T02:42:17;102003.41;;;3.11;79.51
57990;BME280;58373;51.824;5.564;2023-04-27T02:44:43;101994.91;;;3.09;79.39
57990;BME280;58373;51.824;5.564;2023-04-27T02:47:08;101999.31;;;3.05;79.14
57990;BME280;58373;51.824;5.564;2023-04-27T02:49:34;101995.94;;;3.03;79.29
57990;BME280;58373;51.824;5.564;2023-04-27T02:51:59;101998.56;;;3.02;80.08
57990;BME280;58373;51.824;5.564;2023-04-27T02:54:24;101994.31;;;3.01;80.10
57990;BME280;58373;51.824;5.564;2023-04-27T02:56:49;101990.94;;;3.00;79.68
57990;BME280;58373;51.824;5.564;2023-04-27T02:59:15;101994.38;;;2.99;79.56
57990;BME280;58373;51.824;5.564;2023-04-27T03:01:40;102000.38;;;2.98;79.42
57990;BME280;58373;51.824;5.564;2023-04-27T03:04:05;101994.47;;;2.96;79.52
57990;BME280;58373;51.824;5.564;2023-04-27T03:06:31;102001.38;;;2.94;79.73
57990;BME280;58373;51.824;5.564;2023-04-27T03:08:56;102009.13;;;2.92;79.95
57990;BME280;58373;51.824;5.564;2023-04-27T03:11:21;102004.91;;;2.90;80.18
57990;BME280;58373;51.824;5.564;2023-04-27T03:13:46;101998.09;;;2.89;80.17
57990;BME280;58373;51.824;5.564;2023-04-27T03:16:11;101994.66;;;2.90;80.65
57990;BME280;58373;51.824;5.564;2023-04-27T03:18:37;101993.75;;;2.91;80.43
57990;BME280;58373;51.824;5.564;2023-04-27T03:21:06;101999.78;;;2.90;80.79
57990;BME280;58373;51.824;5.564;2023-04-27T03:23:32;102003.22;;;2.89;81.05
57990;BME280;58373;51.824;5.564;2023-04-27T03:25:57;102001.56;;;2.88;80.28
57990;BME280;58373;51.824;5.564;2023-04-27T03:28:22;102012.69;;;2.87;80.49
57990;BME280;58373;51.824;5.564;2023-04-27T03:30:47;102013.56;;;2.86;80.42
57990;BME280;58373;51.824;5.564;2023-04-27T03:33:12;102014.44;;;2.85;80.94
57990;BME280;58373;51.824;5.564;2023-04-27T03:35:38;102009.38;;;2.83;80.65
57990;BME280;58373;51.824;5.564;2023-04-27T03:38:03;102013.66;;;2.83;80.57
57990;BME280;58373;51.824;5.564;2023-04-27T03:40:28;102013.75;;;2.80;80.57
57990;BME280;58373;51.824;5.564;2023-04-27T03:42:53;102022.31;;;2.79;81.30
57990;BME280;58373;51.824;5.564;2023-04-27T03:45:18;102018.94;;;2.78;81.42
57990;BME280;58373;51.824;5.564;2023-04-27T03:47:46;102018.13;;;2.76;81.29
57990;BME280;58373;51.824;5.564;2023-04-27T03:50:11;102014.69;;;2.77;81.82
57990;BME280;58373;51.824;5.564;2023-04-27T03:52:36;102017.31;;;2.76;81.76
57990;BME280;58373;51.824;5.564;2023-04-27T03:55:01;102012.25;;;2.73;81.43
57990;BME280;58373;51.824;5.564;2023-04-27T03:57:27;102014.81;;;2.73;81.52
57990;BME280;58373;51.824;5.564;2023-04-27T03:59:52;102017.38;;;2.73;82.04
57990;BME280;58373;51.824;5.564;2023-04-27T04:02:17;102009.75;;;2.71;81.54
57990;BME280;58373;51.824;5.564;2023-04-27T04:04:42;102017.50;;;2.70;81.89
57990;BME280;58373;51.824;5.564;2023-04-27T04:07:08;102018.31;;;2.70;82.13
57990;BME280;58373;51.824;5.564;2023-04-27T04:09:33;102016.63;;;2.69;82.23
57990;BME280;58373;51.824;5.564;2023-04-27T04:11:58;102021.81;;;2.67;82.26
57990;BME280;58373;51.824;5.564;2023-04-27T04:14:23;102019.25;;;2.67;82.05
57990;BME280;58373;51.824;5.564;2023-04-27T04:16:48;102024.38;;;2.67;82.24
57990;BME280;58373;51.824;5.564;2023-04-27T04:19:14;102023.53;;;2.67;82.40
57990;BME280;58373;51.824;5.564;2023-04-27T04:21:39;102019.34;;;2.64;82.29
57990;BME280;58373;51.824;5.564;2023-04-27T04:24:04;102020.19;;;2.63;82.41
57990;BME280;58373;51.824;5.564;2023-04-27T04:26:29;102022.75;;;2.63;82.35
57990;BME280;58373;51.824;5.564;2023-04-27T04:28:55;102018.63;;;2.59;82.59
57990;BME280;58373;51.824;5.564;2023-04-27T04:31:21;102031.44;;;2.59;82.24
57990;BME280;58373;51.824;5.564;2023-04-27T04:33:46;102033.13;;;2.60;82.61
57990;BME280;58373;51.824;5.564;2023-04-27T04:36:12;102038.25;;;2.60;82.77
57990;BME280;58373;51.824;5.564;2023-04-27T04:38:38;102039.91;;;2.61;82.67
57990;BME280;58373;51.824;5.564;2023-04-27T04:41:03;102036.56;;;2.59;82.23
57990;BME280;58373;51.824;5.564;2023-04-27T04:43:28;102038.31;;;2.57;82.78
57990;BME280;58373;51.824;5.564;2023-04-27T04:45:53;102043.44;;;2.57;82.57
57990;BME280;58373;51.824;5.564;2023-04-27T04:48:19;102048.56;;;2.57;82.86
57990;BME280;58373;51.824;5.564;2023-04-27T04:50:44;102045.22;;;2.55;82.96
57990;BME280;58373;51.824;5.564;2023-04-27T04:53:09;102054.56;;;2.56;83.04
57990;BME280;58373;51.824;5.564;2023-04-27T04:55:35;102045.13;;;2.58;82.66
57990;BME280;58373;51.824;5.564;2023-04-27T04:58:00;102044.25;;;2.59;83.07
57990;BME280;58373;51.824;5.564;2023-04-27T05:00:25;102045.03;;;2.61;82.83
57990;BME280;58373;51.824;5.564;2023-04-27T05:02:50;102048.47;;;2.60;83.18
57990;BME280;58373;51.824;5.564;2023-04-27T05:05:16;102060.44;;;2.60;83.08
57990;BME280;58373;51.824;5.564;2023-04-27T05:07:41;102050.09;;;2.63;83.66
57990;BME280;58373;51.824;5.564;2023-04-27T05:10:07;102056.88;;;2.65;83.70
57990;BME280;58373;51.824;5.564;2023-04-27T05:12:32;102061.06;;;2.68;82.91
57990;BME280;58373;51.824;5.564;2023-04-27T05:14:57;102061.81;;;2.72;83.08
57990;BME280;58373;51.824;5.564;2023-04-27T05:17:22;102059.22;;;2.73;83.71
57990;BME280;58373;51.824;5.564;2023-04-27T05:19:48;102061.75;;;2.73;83.89
57990;BME280;58373;51.824;5.564;2023-04-27T05:22:13;102054.91;;;2.74;83.43
57990;BME280;58373;51.824;5.564;2023-04-27T05:24:38;102054.03;;;2.75;83.68
57990;BME280;58373;51.824;5.564;2023-04-27T05:27:03;102049.63;;;2.80;83.83
57990;BME280;58373;51.824;5.564;2023-04-27T05:29:29;102048.72;;;2.81;83.46
57990;BME280;58373;51.824;5.564;2023-04-27T05:31:54;102056.34;;;2.84;83.48
57990;BME280;58373;51.824;5.564;2023-04-27T05:34:19;102059.69;;;2.86;83.83
57990;BME280;58373;51.824;5.564;2023-04-27T05:36:45;102058.78;;;2.88;83.28
57990;BME280;58373;51.824;5.564;2023-04-27T05:39:11;102054.38;;;2.92;83.71
57990;BME280;58373;51.824;5.564;2023-04-27T05:41:36;102058.53;;;2.96;83.52
57990;BME280;58373;51.824;5.564;2023-04-27T05:44:01;102058.47;;;2.98;84.27
57990;BME280;58373;51.824;5.564;2023-04-27T05:46:27;102064.34;;;3.01;83.62
57990;BME280;58373;51.824;5.564;2023-04-27T05:48:52;102065.94;;;3.05;83.99
57990;BME280;58373;51.824;5.564;2023-04-27T05:51:17;102061.53;;;3.10;83.89
57990;BME280;58373;51.824;5.564;2023-04-27T05:53:42;102069.88;;;3.17;83.62
57990;BME280;58373;51.824;5.564;2023-04-27T05:56:08;102059.41;;;3.23;83.54
57990;BME280;58373;51.824;5.564;2023-04-27T05:58:35;102063.50;;;3.29;83.36
57990;BME280;58373;51.824;5.564;2023-04-27T06:01:00;102056.59;;;3.31;83.58
57990;BME280;58373;51.824;5.564;2023-04-27T06:03:27;102063.22;;;3.38;83.73
57990;BME280;58373;51.824;5.564;2023-04-27T06:05:55;102054.53;;;3.42;83.56
57990;BME280;58373;51.824;5.564;2023-04-27T06:08:21;102059.59;;;3.45;83.00
57990;BME280;58373;51.824;5.564;2023-04-27T06:10:46;102047.47;;;3.50;83.52
57990;BME280;58373;51.824;5.564;2023-04-27T06:13:12;102057.50;;;3.56;82.96
57990;BME280;58373;51.824;5.564;2023-04-27T06:15:37;102057.31;;;3.62;82.88
57990;BME280;58373;51.824;5.564;2023-04-27T06:18:02;102055.31;;;3.70;82.79
57990;BME280;58373;51.824;5.564;2023-04-27T06:20:27;102056.78;;;3.78;82.45
57990;BME280;58373;51.824;5.564;2023-04-27T06:22:52;102060.78;;;3.86;82.60
57990;BME280;58373;51.824;5.564;2023-04-27T06:25:18;102057.94;;;3.94;82.48
57990;BME280;58373;51.824;5.564;2023-04-27T06:27:43;102067.09;;;4.01;82.62
57990;BME280;58373;51.824;5.564;2023-04-27T06:30:08;102062.56;;;4.09;81.86
57990;BME280;58373;51.824;5.564;2023-04-27T06:32:34;102058.88;;;4.16;81.82
57990;BME280;58373;51.824;5.564;2023-04-27T06:34:59;102063.72;;;4.25;81.36
57990;BME280;58373;51.824;5.564;2023-04-27T06:37:24;102066.84;;;4.34;81.54
57990;BME280;58373;51.824;5.564;2023-04-27T06:39:50;102064.84;;;4.42;81.19
57990;BME280;58373;51.824;5.564;2023-04-27T06:42:15;102071.31;;;4.52;80.40
57990;BME280;58373;51.824;5.564;2023-04-27T06:44:40;102070.97;;;4.61;80.66
57990;BME280;58373;51.824;5.564;2023-04-27T06:47:05;102060.47;;;4.67;79.84
57990;BME280;58373;51.824;5.564;2023-04-27T06:49:31;102058.44;;;4.75;79.97
57990;BME280;58373;51.824;5.564;2023-04-27T06:51:56;102058.94;;;4.85;79.78
57990;BME280;58373;51.824;5.564;2023-04-27T06:54:21;102052.63;;;4.94;79.37
57990;BME280;58373;51.824;5.564;2023-04-27T06:56:46;102059.06;;;5.04;79.51
57990;BME280;58373;51.824;5.564;2023-04-27T06:59:12;102067.28;;;5.14;79.61
57990;BME280;58373;51.824;5.564;2023-04-27T07:01:37;102051.53;;;5.21;79.05
57990;BME280;58373;51.824;5.564;2023-04-27T07:04:02;102063.13;;;5.31;78.51
57990;BME280;58373;51.824;5.564;2023-04-27T07:06:27;102057.63;;;5.41;78.84
57990;BME280;58373;51.824;5.564;2023-04-27T07:08:53;102060.63;;;5.52;78.58
57990;BME280;58373;51.824;5.564;2023-04-27T07:11:18;102049.94;;;5.61;78.15
57990;BME280;58373;51.824;5.564;2023-04-27T07:13:43;102052.78;;;5.75;76.89
57990;BME280;58373;51.824;5.564;2023-04-27T07:16:08;102059.34;;;5.82;76.58
57990;BME280;58373;51.824;5.564;2023-04-27T07:18:33;102061.56;;;5.92;75.71
57990;BME280;58373;51.824;5.564;2023-04-27T07:20:59;102063.75;;;6.01;75.94
57990;BME280;58373;51.824;5.564;2023-04-27T07:23:24;102065.78;;;6.13;76.20
57990;BME280;58373;51.824;5.564;2023-04-27T07:25:49;102063.47;;;6.27;75.84
57990;BME280;58373;51.824;5.564;2023-04-27T07:28:14;102065.50;;;6.39;75.67
57990;BME280;58373;51.824;5.564;2023-04-27T07:30:40;102069.44;;;6.48;73.83
57990;BME280;58373;51.824;5.564;2023-04-27T07:33:06;102067.44;;;6.53;74.47
57990;BME280;58373;51.824;5.564;2023-04-27T07:35:31;102062.72;;;6.63;74.80
57990;BME280;58373;51.824;5.564;2023-04-27T07:37:58;102058.97;;;6.70;74.26
57990;BME280;58373;51.824;5.564;2023-04-27T07:40:25;102050.19;;;6.74;74.22
57990;BME280;58373;51.824;5.564;2023-04-27T07:42:51;102053.53;;;6.76;72.98
57990;BME280;58373;51.824;5.564;2023-04-27T07:45:16;102060.84;;;6.85;72.10
57990;BME280;58373;51.824;5.564;2023-04-27T07:47:42;102063.69;;;6.98;73.86
57990;BME280;58373;51.824;5.564;2023-04-27T07:50:08;102069.09;;;7.11;71.31
57990;BME280;58373;51.824;5.564;2023-04-27T07:52:33;102062.81;;;7.16;70.41
57990;BME280;58373;51.824;5.564;2023-04-27T07:54:58;102053.19;;;7.20;69.48
57990;BME280;58373;51.824;5.564;2023-04-27T07:57:24;102058.97;;;7.25;71.07
57990;BME280;58373;51.824;5.564;2023-04-27T07:59:49;102057.75;;;7.32;72.12
57990;BME280;58373;51.824;5.564;2023-04-27T08:02:15;102061.88;;;7.36;71.08
57990;BME280;58373;51.824;5.564;2023-04-27T08:04:40;102062.63;;;7.38;71.44
57990;BME280;58373;51.824;5.564;2023-04-27T08:07:05;102066.59;;;7.45;67.91
57990;BME280;58373;51.824;5.564;2023-04-27T08:09:30;102073.88;;;7.55;69.05
57990;BME280;58373;51.824;5.564;2023-04-27T08:11:56;102067.44;;;7.63;69.47
57990;BME280;58373;51.824;5.564;2023-04-27T08:14:21;102073.28;;;7.67;69.96
57990;BME280;58373;51.824;5.564;2023-04-27T08:16:47;102073.97;;;7.70;67.29
57990;BME280;58373;51.824;5.564;2023-04-27T08:19:12;102074.63;;;7.74;64.35
57990;BME280;58373;51.824;5.564;2023-04-27T08:21:37;102070.88;;;7.81;66.79
57990;BME280;58373;51.824;5.564;2023-04-27T08:24:03;102073.97;;;7.88;68.29
57990;BME280;58373;51.824;5.564;2023-04-27T08:26:28;102075.53;;;7.90;65.46
57990;BME280;58373;51.824;5.564;2023-04-27T08:28:53;102075.53;;;7.90;64.63
57990;BME280;58373;51.824;5.564;2023-04-27T08:31:21;102067.66;;;7.93;65.74
57990;BME280;58373;51.824;5.564;2023-04-27T08:33:46;102077.50;;;8.03;67.17
57990;BME280;58373;51.824;5.564;2023-04-27T08:36:11;102072.63;;;8.14;65.80
57990;BME280;58373;51.824;5.564;2023-04-27T08:38:37;102068.84;;;8.21;63.68
57990;BME280;58373;51.824;5.564;2023-04-27T08:41:02;102063.72;;;8.19;63.37
57990;BME280;58373;51.824;5.564;2023-04-27T08:43:31;102059.25;;;8.23;64.30
57990;BME280;58373;51.824;5.564;2023-04-27T08:45:56;102064.00;;;8.31;62.32
57990;BME280;58373;51.824;5.564;2023-04-27T08:48:22;102052.53;;;8.36;62.54
57990;BME280;58373;51.824;5.564;2023-04-27T08:50:47;102045.38;;;8.41;62.99
57990;BME280;58373;51.824;5.564;2023-04-27T08:53:17;102049.31;;;8.48;61.33
57990;BME280;58373;51.824;5.564;2023-04-27T08:55:43;102061.06;;;8.54;59.91
57990;BME280;58373;51.824;5.564;2023-04-27T08:58:08;102053.25;;;8.56;60.54
57990;BME280;58373;51.824;5.564;2023-04-27T09:00:37;102058.75;;;8.49;60.33
57990;BME280;58373;51.824;5.564;2023-04-27T09:03:04;102055.25;;;8.50;57.00
57990;BME280;58373;51.824;5.564;2023-04-27T09:05:29;102053.06;;;8.59;59.15
57990;BME280;58373;51.824;5.564;2023-04-27T09:07:58;102060.09;;;8.57;60.01
57990;BME280;58373;51.824;5.564;2023-04-27T09:10:24;102059.03;;;8.61;59.41
57990;BME280;58373;51.824;5.564;2023-04-27T09:12:58;102049.41;;;8.63;58.47
57990;BME280;58373;51.824;5.564;2023-04-27T09:15:24;102046.50;;;8.69;58.54
57990;BME280;58373;51.824;5.564;2023-04-27T09:17:53;102049.50;;;8.77;56.92
57990;BME280;58373;51.824;5.564;2023-04-27T09:20:19;102046.59;;;8.83;59.09
57990;BME280;58373;51.824;5.564;2023-04-27T09:22:45;102046.66;;;8.97;59.93
57990;BME280;58373;51.824;5.564;2023-04-27T09:25:27;102052.56;;;8.99;58.84
57990;BME280;58373;51.824;5.564;2023-04-27T09:27:53;102042.47;;;9.11;58.95
57990;BME280;58373;51.824;5.564;2023-04-27T09:30:18;102050.66;;;9.19;58.79
57990;BME280;58373;51.824;5.564;2023-04-27T09:32:48;102042.19;;;9.31;60.19
57990;BME280;58373;51.824;5.564;2023-04-27T09:35:16;102042.41;;;9.42;57.23
57990;BME280;58373;51.824;5.564;2023-04-27T09:37:48;102039.81;;;9.42;55.18
57990;BME280;58373;51.824;5.564;2023-04-27T09:40:13;102037.81;;;9.47;54.75
57990;BME280;58373;51.824;5.564;2023-04-27T09:42:39;102040.97;;;9.52;56.69
57990;BME280;58373;51.824;5.564;2023-04-27T09:45:05;102033.00;;;9.55;56.05
57990;BME280;58373;51.824;5.564;2023-04-27T09:47:31;102029.41;;;9.58;54.40
57990;BME280;58373;51.824;5.564;2023-04-27T09:49:57;102023.38;;;9.57;54.98
57990;BME280;58373;51.824;5.564;2023-04-27T09:52:23;102023.94;;;9.63;55.43
57990;BME280;58373;51.824;5.564;2023-04-27T09:54:50;102030.28;;;9.87;56.09
57990;BME280;58373;51.824;5.564;2023-04-27T10:02:17;102028.50;;;9.73;54.86
57990;BME280;58373;51.824;5.564;2023-04-27T10:07:14;102029.94;;;9.93;54.67
57990;BME280;58373;51.824;5.564;2023-04-27T10:09:40;102031.03;;;10.03;52.47
57990;BME280;58373;51.824;5.564;2023-04-27T10:12:16;102028.16;;;10.08;53.48
57990;BME280;58373;51.824;5.564;2023-04-27T10:17:14;102023.25;;;10.18;53.42
57990;BME280;58373;51.824;5.564;2023-04-27T10:19:40;102032.09;;;10.29;52.15
57990;BME280;58373;51.824;5.564;2023-04-27T10:22:05;102022.81;;;10.40;53.65
57990;BME280;58373;51.824;5.564;2023-04-27T10:24:39;102030.00;;;10.49;54.53
57990;BME280;58373;51.824;5.564;2023-04-27T10:27:09;102029.56;;;10.56;53.39
57990;BME280;58373;51.824;5.564;2023-04-27T10:29:41;102027.31;;;10.64;50.88
57990;BME280;58373;51.824;5.564;2023-04-27T10:32:27;102028.78;;;10.69;51.66
57990;BME280;58373;51.824;5.564;2023-04-27T10:35:01;102020.25;;;10.67;51.00
57990;BME280;58373;51.824;5.564;2023-04-27T10:37:37;102022.66;;;10.70;51.26
57990;BME280;58373;51.824;5.564;2023-04-27T10:40:03;102024.88;;;10.76;49.64
57990;BME280;58373;51.824;5.564;2023-04-27T10:42:29;102026.91;;;10.85;52.04
57990;BME280;58373;51.824;5.564;2023-04-27T10:44:57;102025.03;;;10.87;50.12
57990;BME280;58373;51.824;5.564;2023-04-27T10:47:23;102022.44;;;10.87;49.75
57990;BME280;58373;51.824;5.564;2023-04-27T10:49:51;102024.09;;;10.88;51.05
57990;BME280;58373;51.824;5.564;2023-04-27T10:52:16;102016.66;;;10.96;49.15
57990;BME280;58373;51.824;5.564;2023-04-27T10:54:44;102014.69;;;11.00;47.83
57990;BME280;58373;51.824;5.564;2023-04-27T10:57:09;102015.44;;;11.02;50.02
57990;BME280;58373;51.824;5.564;2023-04-27T10:59:45;102017.13;;;11.15;49.71
57990;BME280;58373;51.824;5.564;2023-04-27T11:02:11;102003.63;;;11.23;50.44
57990;BME280;58373;51.824;5.564;2023-04-27T11:04:36;101999.50;;;11.33;49.23
57990;BME280;58373;51.824;5.564;2023-04-27T11:07:02;101994.72;;;11.40;50.00
57990;BME280;58373;51.824;5.564;2023-04-27T11:09:28;101996.63;;;11.51;50.79
57990;BME280;58373;51.824;5.564;2023-04-27T11:11:54;102005.78;;;11.56;50.30
57990;BME280;58373;51.824;5.564;2023-04-27T11:14:19;101995.91;;;11.49;49.06
57990;BME280;58373;51.824;5.564;2023-04-27T11:16:46;101988.63;;;11.54;50.41
57990;BME280;58373;51.824;5.564;2023-04-27T11:19:11;101996.22;;;11.69;50.71
57990;BME280;58373;51.824;5.564;2023-04-27T11:21:36;101987.81;;;11.79;49.24
57990;BME280;58373;51.824;5.564;2023-04-27T11:24:02;101984.81;;;11.85;49.39
57990;BME280;58373;51.824;5.564;2023-04-27T11:26:27;101980.25;;;11.88;49.46
57990;BME280;58373;51.824;5.564;2023-04-27T11:31:21;101966.91;;;11.67;47.86
57990;BME280;58373;51.824;5.564;2023-04-27T11:33:49;101966.28;;;11.77;48.74
57990;BME280;58373;51.824;5.564;2023-04-27T11:36:16;101957.69;;;11.89;48.89
57990;BME280;58373;51.824;5.564;2023-04-27T11:38:42;101955.88;;;12.02;49.06
57990;BME280;58373;51.824;5.564;2023-04-27T11:41:07;101952.94;;;12.19;49.27
57990;BME280;58373;51.824;5.564;2023-04-27T11:43:32;101957.25;;;12.32;49.97
57990;BME280;58373;51.824;5.564;2023-04-27T11:46:04;101953.31;;;12.39;47.33
57990;BME280;58373;51.824;5.564;2023-04-27T11:48:30;101949.53;;;12.43;47.67
57990;BME280;58373;51.824;5.564;2023-04-27T11:50:56;101952.88;;;12.45;48.58
57990;BME280;58373;51.824;5.564;2023-04-27T11:53:29;101956.81;;;12.51;47.89
57990;BME280;58373;51.824;5.564;2023-04-27T11:55:57;101946.53;;;12.60;48.47
57990;BME280;58373;51.824;5.564;2023-04-27T11:58:23;101948.44;;;12.58;47.28
57990;BME280;58373;51.824;5.564;2023-04-27T12:00:48;101939.03;;;12.68;48.05
57990;BME280;58373;51.824;5.564;2023-04-27T12:03:13;101937.50;;;12.77;46.11
57990;BME280;58373;51.824;5.564;2023-04-27T12:05:48;101936.84;;;12.86;47.59
57990;BME280;58373;51.824;5.564;2023-04-27T12:08:14;101936.97;;;12.96;43.80
57990;BME280;58373;51.824;5.564;2023-04-27T12:10:39;101941.94;;;12.88;44.58
57990;BME280;58373;51.824;5.564;2023-04-27T12:13:04;101939.78;;;12.82;45.26
57990;BME280;58373;51.824;5.564;2023-04-27T12:15:30;101939.34;;;12.88;46.86
57990;BME280;58373;51.824;5.564;2023-04-27T12:17:55;101943.41;;;13.03;46.53
57990;BME280;58373;51.824;5.564;2023-04-27T12:20:20;101935.84;;;13.11;47.00
57990;BME280;58373;51.824;5.564;2023-04-27T12:22:46;101929.66;;;13.25;45.52
57990;BME280;58373;51.824;5.564;2023-04-27T12:25:12;101923.03;;;13.32;46.35
57990;BME280;58373;51.824;5.564;2023-04-27T12:27:38;101930.72;;;13.34;43.70
57990;BME280;58373;51.824;5.564;2023-04-27T12:30:03;101931.41;;;13.24;42.24
57990;BME280;58373;51.824;5.564;2023-04-27T12:32:28;101933.75;;;13.16;43.11
57990;BME280;58373;51.824;5.564;2023-04-27T12:34:54;101929.00;;;13.10;41.40
57990;BME280;58373;51.824;5.564;2023-04-27T12:37:19;101917.38;;;13.03;42.64
57990;BME280;58373;51.824;5.564;2023-04-27T12:39:45;101926.59;;;13.07;42.72
57990;BME280;58373;51.824;5.564;2023-04-27T12:42:11;101914.31;;;13.09;43.08
57990;BME280;58373;51.824;5.564;2023-04-27T12:44:36;101915.47;;;13.05;42.46
57990;BME280;58373;51.824;5.564;2023-04-27T12:47:01;101912.28;;;13.13;42.55
57990;BME280;58373;51.824;5.564;2023-04-27T12:49:28;101918.09;;;13.05;41.22
57990;BME280;58373;51.824;5.564;2023-04-27T12:51:53;101917.84;;;12.97;40.69
57990;BME280;58373;51.824;5.564;2023-04-27T12:54:18;101911.19;;;12.93;42.92
57990;BME280;58373;51.824;5.564;2023-04-27T12:56:43;101914.03;;;13.01;42.88
57990;BME280;58373;51.824;5.564;2023-04-27T12:59:09;101909.28;;;12.95;40.76
57990;BME280;58373;51.824;5.564;2023-04-27T13:01:35;101914.13;;;12.88;42.67
57990;BME280;58373;51.824;5.564;2023-04-27T13:04:00;101919.72;;;12.95;42.55